Palmer Municipal Airport
PAAQ : rendu visible

Aérodrome :











RETROUVEZ-NOUS SUR...

 
LOGIN :

S'inscrire | Disclaimer

   EN    FR    IT 

 









Légende :    VFR   VFR Marginal   IFR   IFR Intensif   IFR Très Intensif
Visi : 
Plafond : 
>= 8 km
>= 3000ft
5 à 8 km
1000 à 3000 ft
1500m à 5 km
500 à 1000 ft
800 à 1500m
200 à 500 ft
< 800m
< 200 ft
Symboles :   Orages  Brouillard  Fortes neiges  Fortes précipitations  Vent > 20 kt






- Altitude de l'aérodrome : 242 ft
- Code IATA : PAQ


PAAQ - Palmer Municipal

DERNIER METAR :
  • 120953Z AUTO 00000KT 10SM SCT049 OVC070 14/09 A2978 RMK AO2 SLP084 T01390094 TSNO $

METARs EXPIRÉS :
  • 120853Z AUTO 11003KT 10SM OVC045 14/09 A2977 RMK AO2 SLP083 T01390094 401890111 53012 TSNO $
  • 120753Z AUTO 09006KT 10SM SCT047 OVC060 14/09 A2976 RMK AO2 SLP079 T01390094 TSNO $

TAF PAAQ
Valide du 12 à 06h jusqu'au 13 à 06h UTC


120544Z 1206/1306 VRB06KT P6SM -SHRA BKN030 BKN060
FM121800 15008G12KT P6SM SCT030 BKN060
FIR PAZA / Amérique du Nord



MET'MAP, la Météo Aéronautique d'un coup d'oeil ! - Copyright ORBIFLY Décembre 2007 - Disclaimer

ORBIFLY MET'MAP TEAM :

Programmation & Développement : Alexandra Zaïnal
Sur une idée originale de : Baudouin d'Aumeries
Assistance à la programmation : Marc-Olivier Méhu
Soutien technique & logistique : Manuel Goepfert

Contact : metmap@orbifly.com




SOURCES & CREDITS :

   NOAA       Earth
Advisory